sensor_id;sensor_type;location;lat;lon;timestamp;temperature;humidity
21844;DHT22;11084;52.482;9.108;2022-11-20T00:01:27;-4.60;99.90
21844;DHT22;11084;52.482;9.108;2022-11-20T00:03:55;-3.40;99.90
21844;DHT22;11084;52.482;9.108;2022-11-20T00:06:24;-3.10;99.90
21844;DHT22;11084;52.482;9.108;2022-11-20T00:08:57;-4.30;99.90
21844;DHT22;11084;52.482;9.108;2022-11-20T00:11:27;-2.90;99.90
21844;DHT22;11084;52.482;9.108;2022-11-20T00:13:56;-2.80;99.90
21844;DHT22;11084;52.482;9.108;2022-11-20T00:16:26;-4.40;99.90
21844;DHT22;11084;52.482;9.108;2022-11-20T00:18:53;-2.60;99.90
21844;DHT22;11084;52.482;9.108;2022-11-20T00:21:21;-4.30;99.90
21844;DHT22;11084;52.482;9.108;2022-11-20T00:23:50;-4.30;99.90
21844;DHT22;11084;52.482;9.108;2022-11-20T00:26:18;-4.20;99.90
21844;DHT22;11084;52.482;9.108;2022-11-20T00:28:50;-4.20;99.90
21844;DHT22;11084;52.482;9.108;2022-11-20T00:31:18;-4.10;99.90
21844;DHT22;11084;52.482;9.108;2022-11-20T00:33:46;-4.10;99.90
21844;DHT22;11084;52.482;9.108;2022-11-20T00:36:15;-4.10;99.90
21844;DHT22;11084;52.482;9.108;2022-11-20T00:38:45;-4.10;99.90
21844;DHT22;11084;52.482;9.108;2022-11-20T00:41:15;-4.10;99.90
21844;DHT22;11084;52.482;9.108;2022-11-20T00:43:42;-4.00;99.90
21844;DHT22;11084;52.482;9.108;2022-11-20T00:46:13;-4.00;99.90
21844;DHT22;11084;52.482;9.108;2022-11-20T00:48:40;-3.90;99.90
21844;DHT22;11084;52.482;9.108;2022-11-20T00:51:07;-3.90;99.90
21844;DHT22;11084;52.482;9.108;2022-11-20T00:53:33;-3.90;99.90
21844;DHT22;11084;52.482;9.108;2022-11-20T00:56:01;-3.90;99.90
21844;DHT22;11084;52.482;9.108;2022-11-20T00:58:34;-3.80;99.90
21844;DHT22;11084;52.482;9.108;2022-11-20T01:01:03;-3.90;99.90
21844;DHT22;11084;52.482;9.108;2022-11-20T01:03:32;-3.90;99.90
21844;DHT22;11084;52.482;9.108;2022-11-20T01:06:02;-3.90;99.90
21844;DHT22;11084;52.482;9.108;2022-11-20T01:08:34;-3.90;99.90
21844;DHT22;11084;52.482;9.108;2022-11-20T01:11:09;-3.80;99.90
21844;DHT22;11084;52.482;9.108;2022-11-20T01:13:37;-3.80;99.90
21844;DHT22;11084;52.482;9.108;2022-11-20T01:18:41;-3.80;99.90
21844;DHT22;11084;52.482;9.108;2022-11-20T01:21:34;-3.80;99.90
21844;DHT22;11084;52.482;9.108;2022-11-20T01:24:00;-3.80;99.90
21844;DHT22;11084;52.482;9.108;2022-11-20T01:26:33;-3.70;99.90
21844;DHT22;11084;52.482;9.108;2022-11-20T01:29:00;-3.70;99.90
21844;DHT22;11084;52.482;9.108;2022-11-20T01:31:33;-3.70;99.90
21844;DHT22;11084;52.482;9.108;2022-11-20T01:34:09;-3.70;99.90
21844;DHT22;11084;52.482;9.108;2022-11-20T01:36:37;-3.60;99.90
21844;DHT22;11084;52.482;9.108;2022-11-20T01:39:15;-3.60;99.90
21844;DHT22;11084;52.482;9.108;2022-11-20T01:41:43;-1.60;99.90
21844;DHT22;11084;52.482;9.108;2022-11-20T01:44:52;-3.60;99.90
21844;DHT22;11084;52.482;9.108;2022-11-20T01:47:37;-3.60;99.90
21844;DHT22;11084;52.482;9.108;2022-11-20T01:50:16;-3.50;99.90
21844;DHT22;11084;52.482;9.108;2022-11-20T01:55:28;-3.40;99.90
21844;DHT22;11084;52.482;9.108;2022-11-20T01:57:56;-3.40;99.90
21844;DHT22;11084;52.482;9.108;2022-11-20T02:00:23;-3.30;99.90
21844;DHT22;11084;52.482;9.108;2022-11-20T02:03:03;-3.30;99.90
21844;DHT22;11084;52.482;9.108;2022-11-20T02:05:37;-3.20;99.90
21844;DHT22;11084;52.482;9.108;2022-11-20T02:08:05;-3.10;99.90
21844;DHT22;11084;52.482;9.108;2022-11-20T02:10:32;-3.10;99.90
21844;DHT22;11084;52.482;9.108;2022-11-20T02:12:59;-3.00;99.90
21844;DHT22;11084;52.482;9.108;2022-11-20T02:15:44;-3.00;99.90
21844;DHT22;11084;52.482;9.108;2022-11-20T02:18:13;-3.00;99.90
21844;DHT22;11084;52.482;9.108;2022-11-20T02:20:42;-3.00;99.90
21844;DHT22;11084;52.482;9.108;2022-11-20T02:23:13;-2.90;99.90
21844;DHT22;11084;52.482;9.108;2022-11-20T02:25:48;-2.90;99.90
21844;DHT22;11084;52.482;9.108;2022-11-20T02:28:17;-0.80;99.90
21844;DHT22;11084;52.482;9.108;2022-11-20T02:30:44;-2.80;99.90
21844;DHT22;11084;52.482;9.108;2022-11-20T02:33:10;-2.80;99.90
21844;DHT22;11084;52.482;9.108;2022-11-20T02:35:39;-2.80;99.90
21844;DHT22;11084;52.482;9.108;2022-11-20T02:38:07;-2.70;99.90
21844;DHT22;11084;52.482;9.108;2022-11-20T02:40:34;-2.80;99.90
21844;DHT22;11084;52.482;9.108;2022-11-20T02:43:00;-2.70;99.90
21844;DHT22;11084;52.482;9.108;2022-11-20T02:45:26;-2.70;99.90
21844;DHT22;11084;52.482;9.108;2022-11-20T02:47:52;-2.70;99.90
21844;DHT22;11084;52.482;9.108;2022-11-20T02:50:18;-2.60;99.90
21844;DHT22;11084;52.482;9.108;2022-11-20T02:52:44;-2.60;99.90
21844;DHT22;11084;52.482;9.108;2022-11-20T02:55:10;-2.60;99.90
21844;DHT22;11084;52.482;9.108;2022-11-20T02:57:37;-2.60;99.90
21844;DHT22;11084;52.482;9.108;2022-11-20T03:00:05;-2.30;99.90
21844;DHT22;11084;52.482;9.108;2022-11-20T03:02:34;-2.50;99.90
21844;DHT22;11084;52.482;9.108;2022-11-20T03:05:00;-2.30;99.90
21844;DHT22;11084;52.482;9.108;2022-11-20T03:07:26;-2.50;99.90
21844;DHT22;11084;52.482;9.108;2022-11-20T03:09:52;-2.30;99.90
21844;DHT22;11084;52.482;9.108;2022-11-20T03:12:18;-2.40;99.90
21844;DHT22;11084;52.482;9.108;2022-11-20T03:14:44;-2.40;99.90
21844;DHT22;11084;52.482;9.108;2022-11-20T03:17:10;-2.40;99.90
21844;DHT22;11084;52.482;9.108;2022-11-20T03:19:36;-2.30;99.90
21844;DHT22;11084;52.482;9.108;2022-11-20T03:22:02;-2.30;99.90
21844;DHT22;11084;52.482;9.108;2022-11-20T03:24:28;-2.30;99.90
21844;DHT22;11084;52.482;9.108;2022-11-20T03:26:55;-2.30;99.90
21844;DHT22;11084;52.482;9.108;2022-11-20T03:29:21;-2.20;99.90
21844;DHT22;11084;52.482;9.108;2022-11-20T03:34:13;-2.20;99.90
21844;DHT22;11084;52.482;9.108;2022-11-20T03:36:41;-1.70;99.90
21844;DHT22;11084;52.482;9.108;2022-11-20T03:39:09;-2.20;99.90
21844;DHT22;11084;52.482;9.108;2022-11-20T03:41:37;-1.70;99.90
21844;DHT22;11084;52.482;9.108;2022-11-20T03:44:08;-2.10;99.90
21844;DHT22;11084;52.482;9.108;2022-11-20T03:46:35;-2.10;99.90
21844;DHT22;11084;52.482;9.108;2022-11-20T03:49:02;-2.10;99.90
21844;DHT22;11084;52.482;9.108;2022-11-20T03:51:34;-2.00;99.90
21844;DHT22;11084;52.482;9.108;2022-11-20T03:54:06;-2.00;99.90
21844;DHT22;11084;52.482;9.108;2022-11-20T03:56:35;-2.00;99.90
21844;DHT22;11084;52.482;9.108;2022-11-20T03:59:03;-1.60;99.90
21844;DHT22;11084;52.482;9.108;2022-11-20T04:01:35;-1.80;99.90
21844;DHT22;11084;52.482;9.108;2022-11-20T04:04:03;-2.00;99.90
21844;DHT22;11084;52.482;9.108;2022-11-20T04:06:34;-1.90;99.90
21844;DHT22;11084;52.482;9.108;2022-11-20T04:09:01;-1.90;99.90
21844;DHT22;11084;52.482;9.108;2022-11-20T04:11:33;-1.90;99.90
21844;DHT22;11084;52.482;9.108;2022-11-20T04:14:03;-1.30;99.90
21844;DHT22;11084;52.482;9.108;2022-11-20T04:16:32;-1.80;99.90
21844;DHT22;11084;52.482;9.108;2022-11-20T04:19:02;-1.80;99.90
21844;DHT22;11084;52.482;9.108;2022-11-20T04:21:30;-1.20;99.90
21844;DHT22;11084;52.482;9.108;2022-11-20T04:23:56;-1.40;99.90
21844;DHT22;11084;52.482;9.108;2022-11-20T04:26:26;-1.40;99.90
21844;DHT22;11084;52.482;9.108;2022-11-20T04:28:53;-1.60;99.90
21844;DHT22;11084;52.482;9.108;2022-11-20T04:31:21;-1.30;99.90
21844;DHT22;11084;52.482;9.108;2022-11-20T04:33:52;-1.30;99.90
21844;DHT22;11084;52.482;9.108;2022-11-20T04:36:21;-1.70;99.90
21844;DHT22;11084;52.482;9.108;2022-11-20T04:38:53;-1.70;99.90
21844;DHT22;11084;52.482;9.108;2022-11-20T04:41:21;-1.70;99.90
21844;DHT22;11084;52.482;9.108;2022-11-20T04:43:50;-1.70;99.90
21844;DHT22;11084;52.482;9.108;2022-11-20T04:46:19;-1.70;99.90
21844;DHT22;11084;52.482;9.108;2022-11-20T04:48:48;-1.60;99.90
21844;DHT22;11084;52.482;9.108;2022-11-20T04:51:15;-1.30;99.90
21844;DHT22;11084;52.482;9.108;2022-11-20T04:53:41;-1.60;99.90
21844;DHT22;11084;52.482;9.108;2022-11-20T04:56:09;-1.30;99.90
21844;DHT22;11084;52.482;9.108;2022-11-20T04:58:37;-1.20;99.90
21844;DHT22;11084;52.482;9.108;2022-11-20T05:01:11;-1.60;99.90
21844;DHT22;11084;52.482;9.108;2022-11-20T05:03:40;-1.60;99.90
21844;DHT22;11084;52.482;9.108;2022-11-20T05:06:07;-1.40;99.90
21844;DHT22;11084;52.482;9.108;2022-11-20T05:08:34;-1.00;99.90
21844;DHT22;11084;52.482;9.108;2022-11-20T05:11:04;-1.20;99.90
21844;DHT22;11084;52.482;9.108;2022-11-20T05:13:32;-1.50;99.90
21844;DHT22;11084;52.482;9.108;2022-11-20T05:16:03;-1.50;99.90
21844;DHT22;11084;52.482;9.108;2022-11-20T05:18:30;-1.50;99.90
21844;DHT22;11084;52.482;9.108;2022-11-20T05:20:56;-1.50;99.90
21844;DHT22;11084;52.482;9.108;2022-11-20T05:23:24;-0.90;99.90
21844;DHT22;11084;52.482;9.108;2022-11-20T05:25:55;-1.50;99.90
21844;DHT22;11084;52.482;9.108;2022-11-20T05:28:21;-1.00;99.90
21844;DHT22;11084;52.482;9.108;2022-11-20T05:30:48;-1.40;99.90
21844;DHT22;11084;52.482;9.108;2022-11-20T05:33:14;-1.40;99.90
21844;DHT22;11084;52.482;9.108;2022-11-20T05:35:40;-1.40;99.90
21844;DHT22;11084;52.482;9.108;2022-11-20T05:38:06;-1.40;99.90
21844;DHT22;11084;52.482;9.108;2022-11-20T05:40:32;-1.40;99.90
21844;DHT22;11084;52.482;9.108;2022-11-20T05:42:59;-1.30;99.90
21844;DHT22;11084;52.482;9.108;2022-11-20T05:45:25;-1.30;99.90
21844;DHT22;11084;52.482;9.108;2022-11-20T05:52:44;-1.30;99.90
21844;DHT22;11084;52.482;9.108;2022-11-20T05:55:10;-1.10;99.90
21844;DHT22;11084;52.482;9.108;2022-11-20T05:57:36;-1.00;99.90
21844;DHT22;11084;52.482;9.108;2022-11-20T06:00:03;-1.20;99.90
21844;DHT22;11084;52.482;9.108;2022-11-20T06:02:30;-1.30;99.90
21844;DHT22;11084;52.482;9.108;2022-11-20T06:04:55;-1.30;99.90
21844;DHT22;11084;52.482;9.108;2022-11-20T06:07:21;-1.30;99.90
21844;DHT22;11084;52.482;9.108;2022-11-20T06:09:47;-1.30;99.90
21844;DHT22;11084;52.482;9.108;2022-11-20T06:12:13;-1.30;99.90
21844;DHT22;11084;52.482;9.108;2022-11-20T06:14:39;-1.30;99.90
21844;DHT22;11084;52.482;9.108;2022-11-20T06:17:05;-1.30;99.90
21844;DHT22;11084;52.482;9.108;2022-11-20T06:19:31;-1.30;99.90
21844;DHT22;11084;52.482;9.108;2022-11-20T06:24:23;-1.30;99.90
21844;DHT22;11084;52.482;9.108;2022-11-20T06:26:51;-1.20;99.90
21844;DHT22;11084;52.482;9.108;2022-11-20T06:29:17;-1.20;99.90
21844;DHT22;11084;52.482;9.108;2022-11-20T06:31:43;-1.20;99.90
21844;DHT22;11084;52.482;9.108;2022-11-20T06:34:10;-1.20;99.90
21844;DHT22;11084;52.482;9.108;2022-11-20T06:36:36;-0.90;99.90
21844;DHT22;11084;52.482;9.108;2022-11-20T06:39:03;-1.30;99.90
21844;DHT22;11084;52.482;9.108;2022-11-20T06:41:29;-1.30;99.90
21844;DHT22;11084;52.482;9.108;2022-11-20T06:43:58;-1.30;99.90
21844;DHT22;11084;52.482;9.108;2022-11-20T06:46:24;-1.30;99.90
21844;DHT22;11084;52.482;9.108;2022-11-20T06:48:50;-1.30;99.90
21844;DHT22;11084;52.482;9.108;2022-11-20T06:51:17;-1.40;99.90
21844;DHT22;11084;52.482;9.108;2022-11-20T06:53:43;-1.40;99.90
21844;DHT22;11084;52.482;9.108;2022-11-20T06:56:09;-1.40;99.90
21844;DHT22;11084;52.482;9.108;2022-11-20T06:58:35;-1.40;99.90
21844;DHT22;11084;52.482;9.108;2022-11-20T07:01:06;-1.10;99.90
21844;DHT22;11084;52.482;9.108;2022-11-20T07:03:33;-1.30;99.90
21844;DHT22;11084;52.482;9.108;2022-11-20T07:06:00;-1.30;99.90
21844;DHT22;11084;52.482;9.108;2022-11-20T07:08:27;-1.20;99.90
21844;DHT22;11084;52.482;9.108;2022-11-20T07:10:58;-1.30;99.90
21844;DHT22;11084;52.482;9.108;2022-11-20T07:13:26;-1.30;99.90
21844;DHT22;11084;52.482;9.108;2022-11-20T07:15:54;-1.20;99.90
21844;DHT22;11084;52.482;9.108;2022-11-20T07:18:20;-1.20;99.90
21844;DHT22;11084;52.482;9.108;2022-11-20T07:20:46;-0.80;99.90
21844;DHT22;11084;52.482;9.108;2022-11-20T07:23:12;-1.20;99.90
21844;DHT22;11084;52.482;9.108;2022-11-20T07:25:38;-1.20;99.90
21844;DHT22;11084;52.482;9.108;2022-11-20T07:28:04;-1.20;99.90
21844;DHT22;11084;52.482;9.108;2022-11-20T07:30:30;-1.20;99.90
21844;DHT22;11084;52.482;9.108;2022-11-20T07:32:57;-1.20;99.90
21844;DHT22;11084;52.482;9.108;2022-11-20T07:35:24;-1.20;99.90
21844;DHT22;11084;52.482;9.108;2022-11-20T07:37:50;-1.20;99.90
21844;DHT22;11084;52.482;9.108;2022-11-20T07:40:16;-1.20;99.90
21844;DHT22;11084;52.482;9.108;2022-11-20T07:42:54;-0.70;99.90
21844;DHT22;11084;52.482;9.108;2022-11-20T07:45:23;-1.20;99.90
21844;DHT22;11084;52.482;9.108;2022-11-20T07:47:50;-1.10;99.90
21844;DHT22;11084;52.482;9.108;2022-11-20T07:50:17;-1.10;99.90
21844;DHT22;11084;52.482;9.108;2022-11-20T07:52:43;-1.10;99.90
21844;DHT22;11084;52.482;9.108;2022-11-20T07:55:10;-0.90;99.90
21844;DHT22;11084;52.482;9.108;2022-11-20T07:57:36;-1.10;99.90
21844;DHT22;11084;52.482;9.108;2022-11-20T08:00:07;-1.10;99.90
21844;DHT22;11084;52.482;9.108;2022-11-20T08:02:42;-1.00;99.90
21844;DHT22;11084;52.482;9.108;2022-11-20T08:05:09;-1.00;99.90
21844;DHT22;11084;52.482;9.108;2022-11-20T08:07:40;-1.00;99.90
21844;DHT22;11084;52.482;9.108;2022-11-20T08:10:09;-1.00;99.90
21844;DHT22;11084;52.482;9.108;2022-11-20T08:12:36;-0.90;99.90
21844;DHT22;11084;52.482;9.108;2022-11-20T08:15:28;-0.90;99.90
21844;DHT22;11084;52.482;9.108;2022-11-20T08:18:03;-0.70;99.90
21844;DHT22;11084;52.482;9.108;2022-11-20T08:20:34;-0.80;99.90
21844;DHT22;11084;52.482;9.108;2022-11-20T08:23:06;-0.80;99.90
21844;DHT22;11084;52.482;9.108;2022-11-20T08:25:34;-0.80;99.90
21844;DHT22;11084;52.482;9.108;2022-11-20T08:28:04;-0.80;99.90
21844;DHT22;11084;52.482;9.108;2022-11-20T08:30:33;-0.70;99.90
21844;DHT22;11084;52.482;9.108;2022-11-20T08:33:08;-0.30;99.90
21844;DHT22;11084;52.482;9.108;2022-11-20T08:35:35;-0.70;99.90
21844;DHT22;11084;52.482;9.108;2022-11-20T08:38:03;-0.70;99.90
21844;DHT22;11084;52.482;9.108;2022-11-20T08:40:30;-0.10;99.90
21844;DHT22;11084;52.482;9.108;2022-11-20T08:42:56;-0.30;99.90
21844;DHT22;11084;52.482;9.108;2022-11-20T08:45:22;-0.50;99.90
21844;DHT22;11084;52.482;9.108;2022-11-20T08:47:48;0.40;99.90
21844;DHT22;11084;52.482;9.108;2022-11-20T08:50:15;-0.40;99.90
21844;DHT22;11084;52.482;9.108;2022-11-20T08:52:43;-0.40;99.90
21844;DHT22;11084;52.482;9.108;2022-11-20T08:55:09;-0.30;99.90
21844;DHT22;11084;52.482;9.108;2022-11-20T08:57:39;-0.20;99.90
21844;DHT22;11084;52.482;9.108;2022-11-20T09:00:06;-0.20;99.90
21844;DHT22;11084;52.482;9.108;2022-11-20T09:02:33;-0.10;99.90
21844;DHT22;11084;52.482;9.108;2022-11-20T09:07:28;-0.10;99.90
21844;DHT22;11084;52.482;9.108;2022-11-20T09:09:55;0.00;99.90
21844;DHT22;11084;52.482;9.108;2022-11-20T09:12:22;0.00;99.90
21844;DHT22;11084;52.482;9.108;2022-11-20T09:14:50;0.10;99.90
21844;DHT22;11084;52.482;9.108;2022-11-20T09:17:18;0.20;99.90
21844;DHT22;11084;52.482;9.108;2022-11-20T09:19:46;0.20;99.90
21844;DHT22;11084;52.482;9.108;2022-11-20T09:22:12;0.30;99.90
21844;DHT22;11084;52.482;9.108;2022-11-20T09:24:38;0.30;99.90
21844;DHT22;11084;52.482;9.108;2022-11-20T09:27:05;0.40;99.90
21844;DHT22;11084;52.482;9.108;2022-11-20T09:29:31;0.40;99.90
21844;DHT22;11084;52.482;9.108;2022-11-20T09:31:57;0.50;99.90
21844;DHT22;11084;52.482;9.108;2022-11-20T09:34:23;0.50;99.90
21844;DHT22;11084;52.482;9.108;2022-11-20T09:36:49;0.60;99.90
21844;DHT22;11084;52.482;9.108;2022-11-20T09:39:15;0.70;99.90
21844;DHT22;11084;52.482;9.108;2022-11-20T09:48:04;0.80;99.90
21844;DHT22;11084;52.482;9.108;2022-11-20T09:56:53;0.90;99.90
21844;DHT22;11084;52.482;9.108;2022-11-20T09:59:32;0.90;99.90
21844;DHT22;11084;52.482;9.108;2022-11-20T10:02:00;0.90;99.90
21844;DHT22;11084;52.482;9.108;2022-11-20T10:04:31;1.00;99.90
21844;DHT22;11084;52.482;9.108;2022-11-20T10:09:30;1.00;99.90
21844;DHT22;11084;52.482;9.108;2022-11-20T10:15:19;1.00;99.90
21844;DHT22;11084;52.482;9.108;2022-11-20T10:18:03;0.90;99.90
21844;DHT22;11084;52.482;9.108;2022-11-20T10:26:46;0.90;99.90
21844;DHT22;11084;52.482;9.108;2022-11-20T10:29:38;1.10;99.90
21844;DHT22;11084;52.482;9.108;2022-11-20T10:32:16;1.10;99.90
21844;DHT22;11084;52.482;9.108;2022-11-20T10:34:56;1.10;99.90
21844;DHT22;11084;52.482;9.108;2022-11-20T10:37:26;1.20;99.90
21844;DHT22;11084;52.482;9.108;2022-11-20T10:40:14;1.20;99.90
21844;DHT22;11084;52.482;9.108;2022-11-20T10:43:01;1.20;99.90
21844;DHT22;11084;52.482;9.108;2022-11-20T10:50:35;1.40;99.90
21844;DHT22;11084;52.482;9.108;2022-11-20T10:56:07;1.40;99.90
21844;DHT22;11084;52.482;9.108;2022-11-20T11:01:24;1.50;99.90
21844;DHT22;11084;52.482;9.108;2022-11-20T11:03:54;1.60;99.90
21844;DHT22;11084;52.482;9.108;2022-11-20T11:06:34;1.60;99.90
21844;DHT22;11084;52.482;9.108;2022-11-20T11:09:11;1.60;99.90
21844;DHT22;11084;52.482;9.108;2022-11-20T11:11:42;1.70;99.90
21844;DHT22;11084;52.482;9.108;2022-11-20T11:14:13;1.70;99.90
21844;DHT22;11084;52.482;9.108;2022-11-20T11:16:54;1.70;99.90
21844;DHT22;11084;52.482;9.108;2022-11-20T11:19:21;1.80;99.90
21844;DHT22;11084;52.482;9.108;2022-11-20T11:21:55;1.90;99.90
21844;DHT22;11084;52.482;9.108;2022-11-20T11:24:27;2.00;99.90
21844;DHT22;11084;52.482;9.108;2022-11-20T11:27:00;2.00;99.90
21844;DHT22;11084;52.482;9.108;2022-11-20T11:29:36;2.10;99.90
21844;DHT22;11084;52.482;9.108;2022-11-20T11:32:08;2.10;99.90
21844;DHT22;11084;52.482;9.108;2022-11-20T11:34:39;2.10;99.90
21844;DHT22;11084;52.482;9.108;2022-11-20T11:37:18;2.20;99.90
21844;DHT22;11084;52.482;9.108;2022-11-20T11:39:47;2.20;99.90
21844;DHT22;11084;52.482;9.108;2022-11-20T11:42:17;2.30;99.90
21844;DHT22;11084;52.482;9.108;2022-11-20T11:44:46;2.30;99.90
21844;DHT22;11084;52.482;9.108;2022-11-20T11:47:45;2.30;99.90
21844;DHT22;11084;52.482;9.108;2022-11-20T11:50:19;2.40;99.90
21844;DHT22;11084;52.482;9.108;2022-11-20T12:03:39;2.60;99.90
21844;DHT22;11084;52.482;9.108;2022-11-20T12:06:16;2.60;99.90
21844;DHT22;11084;52.482;9.108;2022-11-20T12:08:48;2.70;99.90
21844;DHT22;11084;52.482;9.108;2022-11-20T12:14:13;2.70;99.90
21844;DHT22;11084;52.482;9.108;2022-11-20T12:16:41;2.70;99.90
21844;DHT22;11084;52.482;9.108;2022-11-20T12:19:13;2.80;99.90
21844;DHT22;11084;52.482;9.108;2022-11-20T12:30:14;2.70;99.90
21844;DHT22;11084;52.482;9.108;2022-11-20T12:33:07;2.80;99.90
21844;DHT22;11084;52.482;9.108;2022-11-20T12:53:21;2.70;99.90
21844;DHT22;11084;52.482;9.108;2022-11-20T13:06:58;2.80;99.90
21844;DHT22;11084;52.482;9.108;2022-11-20T13:09:27;2.90;99.90
21844;DHT22;11084;52.482;9.108;2022-11-20T13:18:00;2.90;99.90
21844;DHT22;11084;52.482;9.108;2022-11-20T13:20:35;2.80;99.90
21844;DHT22;11084;52.482;9.108;2022-11-20T13:23:02;2.80;99.90
21844;DHT22;11084;52.482;9.108;2022-11-20T13:25:36;2.80;99.90
21844;DHT22;11084;52.482;9.108;2022-11-20T13:30:49;2.80;99.90
21844;DHT22;11084;52.482;9.108;2022-11-20T13:33:36;2.80;99.90
21844;DHT22;11084;52.482;9.108;2022-11-20T13:36:05;2.80;99.90
21844;DHT22;11084;52.482;9.108;2022-11-20T13:38:49;2.80;99.90
21844;DHT22;11084;52.482;9.108;2022-11-20T13:41:31;2.80;99.90
21844;DHT22;11084;52.482;9.108;2022-11-20T13:46:46;2.80;99.90
21844;DHT22;11084;52.482;9.108;2022-11-20T13:49:39;2.70;99.90
21844;DHT22;11084;52.482;9.108;2022-11-20T13:56:10;2.70;99.90
21844;DHT22;11084;52.482;9.108;2022-11-20T14:01:43;2.60;99.90
21844;DHT22;11084;52.482;9.108;2022-11-20T14:04:15;2.50;99.90
21844;DHT22;11084;52.482;9.108;2022-11-20T14:06:46;2.50;99.90
21844;DHT22;11084;52.482;9.108;2022-11-20T14:09:28;2.50;99.90
21844;DHT22;11084;52.482;9.108;2022-11-20T14:11:56;2.40;99.90
21844;DHT22;11084;52.482;9.108;2022-11-20T14:14:28;2.40;99.90
21844;DHT22;11084;52.482;9.108;2022-11-20T14:17:53;2.40;99.90
21844;DHT22;11084;52.482;9.108;2022-11-20T14:19:58;2.40;99.90
21844;DHT22;11084;52.482;9.108;2022-11-20T14:22:28;2.40;99.90
21844;DHT22;11084;52.482;9.108;2022-11-20T14:27:59;2.50;99.90
21844;DHT22;11084;52.482;9.108;2022-11-20T14:30:44;2.30;99.90
21844;DHT22;11084;52.482;9.108;2022-11-20T14:33:13;2.20;99.90
21844;DHT22;11084;52.482;9.108;2022-11-20T14:35:44;2.20;99.90
21844;DHT22;11084;52.482;9.108;2022-11-20T14:38:14;2.10;99.90
21844;DHT22;11084;52.482;9.108;2022-11-20T14:40:43;2.10;99.90
21844;DHT22;11084;52.482;9.108;2022-11-20T14:43:23;2.00;99.90
21844;DHT22;11084;52.482;9.108;2022-11-20T14:46:10;2.00;99.90
21844;DHT22;11084;52.482;9.108;2022-11-20T14:48:47;1.90;99.90
21844;DHT22;11084;52.482;9.108;2022-11-20T14:53:51;1.80;99.90
21844;DHT22;11084;52.482;9.108;2022-11-20T14:56:24;1.80;99.90
21844;DHT22;11084;52.482;9.108;2022-11-20T14:58:57;1.70;99.90
21844;DHT22;11084;52.482;9.108;2022-11-20T15:01:28;1.60;99.90
21844;DHT22;11084;52.482;9.108;2022-11-20T15:04:21;1.70;99.90
21844;DHT22;11084;52.482;9.108;2022-11-20T15:06:52;1.70;99.90
21844;DHT22;11084;52.482;9.108;2022-11-20T15:09:21;1.60;99.90
21844;DHT22;11084;52.482;9.108;2022-11-20T15:12:03;1.60;99.90
21844;DHT22;11084;52.482;9.108;2022-11-20T15:14:30;1.40;99.90
21844;DHT22;11084;52.482;9.108;2022-11-20T15:16:59;1.40;99.90
21844;DHT22;11084;52.482;9.108;2022-11-20T15:19:26;1.50;99.90
21844;DHT22;11084;52.482;9.108;2022-11-20T15:21:53;1.40;99.90
21844;DHT22;11084;52.482;9.108;2022-11-20T15:26:45;1.40;99.90
21844;DHT22;11084;52.482;9.108;2022-11-20T15:29:14;1.30;99.90
21844;DHT22;11084;52.482;9.108;2022-11-20T15:31:44;1.30;99.90
21844;DHT22;11084;52.482;9.108;2022-11-20T15:34:14;1.30;99.90
21844;DHT22;11084;52.482;9.108;2022-11-20T15:36:42;1.20;99.90
21844;DHT22;11084;52.482;9.108;2022-11-20T15:39:11;1.20;99.90
21844;DHT22;11084;52.482;9.108;2022-11-20T15:41:38;1.10;99.90
21844;DHT22;11084;52.482;9.108;2022-11-20T15:44:04;1.10;99.90
21844;DHT22;11084;52.482;9.108;2022-11-20T15:46:32;1.00;99.90
21844;DHT22;11084;52.482;9.108;2022-11-20T15:49:04;1.00;99.90
21844;DHT22;11084;52.482;9.108;2022-11-20T15:51:37;0.80;99.90
21844;DHT22;11084;52.482;9.108;2022-11-20T15:54:15;0.70;99.90
21844;DHT22;11084;52.482;9.108;2022-11-20T15:56:50;0.50;99.90
21844;DHT22;11084;52.482;9.108;2022-11-20T15:59:19;0.50;99.90
21844;DHT22;11084;52.482;9.108;2022-11-20T16:01:46;0.40;99.90
21844;DHT22;11084;52.482;9.108;2022-11-20T16:04:14;0.30;99.90
21844;DHT22;11084;52.482;9.108;2022-11-20T16:06:41;0.30;99.90
21844;DHT22;11084;52.482;9.108;2022-11-20T16:11:35;0.20;99.90
21844;DHT22;11084;52.482;9.108;2022-11-20T16:14:05;0.20;99.90
21844;DHT22;11084;52.482;9.108;2022-11-20T16:16:50;0.10;99.90
21844;DHT22;11084;52.482;9.108;2022-11-20T16:19:17;0.10;99.90
21844;DHT22;11084;52.482;9.108;2022-11-20T16:21:43;0.00;99.90
21844;DHT22;11084;52.482;9.108;2022-11-20T16:24:12;0.00;99.90
21844;DHT22;11084;52.482;9.108;2022-11-20T16:26:39;-0.10;99.90
21844;DHT22;11084;52.482;9.108;2022-11-20T16:29:06;-0.10;99.90
21844;DHT22;11084;52.482;9.108;2022-11-20T16:34:02;0.00;99.90
21844;DHT22;11084;52.482;9.108;2022-11-20T16:38:58;-0.10;99.90
21844;DHT22;11084;52.482;9.108;2022-11-20T16:41:27;-0.10;99.90
21844;DHT22;11084;52.482;9.108;2022-11-20T16:43:55;-0.10;99.90
21844;DHT22;11084;52.482;9.108;2022-11-20T16:46:24;-0.10;99.90
21844;DHT22;11084;52.482;9.108;2022-11-20T16:49:03;-0.20;99.90
21844;DHT22;11084;52.482;9.108;2022-11-20T16:51:34;-0.20;99.90
21844;DHT22;11084;52.482;9.108;2022-11-20T16:54:05;-0.30;99.90
21844;DHT22;11084;52.482;9.108;2022-11-20T16:56:33;-0.30;99.90
21844;DHT22;11084;52.482;9.108;2022-11-20T16:59:00;-0.40;99.90
21844;DHT22;11084;52.482;9.108;2022-11-20T17:01:27;-0.30;99.90
21844;DHT22;11084;52.482;9.108;2022-11-20T17:03:59;-0.40;99.90
21844;DHT22;11084;52.482;9.108;2022-11-20T17:06:37;-0.40;99.90
21844;DHT22;11084;52.482;9.108;2022-11-20T17:09:05;-0.40;99.90
21844;DHT22;11084;52.482;9.108;2022-11-20T17:11:34;-0.50;99.90
21844;DHT22;11084;52.482;9.108;2022-11-20T17:14:01;-0.50;99.90
21844;DHT22;11084;52.482;9.108;2022-11-20T17:16:36;-0.50;99.90
21844;DHT22;11084;52.482;9.108;2022-11-20T17:19:03;-0.60;99.90
21844;DHT22;11084;52.482;9.108;2022-11-20T17:21:34;-0.60;99.90
21844;DHT22;11084;52.482;9.108;2022-11-20T17:24:02;-0.60;99.90
21844;DHT22;11084;52.482;9.108;2022-11-20T17:28:59;-0.60;99.90
21844;DHT22;11084;52.482;9.108;2022-11-20T17:31:28;-0.60;99.90
21844;DHT22;11084;52.482;9.108;2022-11-20T17:33:55;-0.70;99.90
21844;DHT22;11084;52.482;9.108;2022-11-20T17:38:50;-0.70;99.90
21844;DHT22;11084;52.482;9.108;2022-11-20T17:41:19;-0.70;99.90
21844;DHT22;11084;52.482;9.108;2022-11-20T17:43:47;-0.70;99.90
21844;DHT22;11084;52.482;9.108;2022-11-20T17:46:18;-0.70;99.90
21844;DHT22;11084;52.482;9.108;2022-11-20T17:48:46;-0.80;99.90
21844;DHT22;11084;52.482;9.108;2022-11-20T17:51:23;-0.50;99.90
21844;DHT22;11084;52.482;9.108;2022-11-20T17:54:01;-0.70;99.90
21844;DHT22;11084;52.482;9.108;2022-11-20T17:56:33;-0.70;99.90
21844;DHT22;11084;52.482;9.108;2022-11-20T17:59:18;-0.70;99.90
21844;DHT22;11084;52.482;9.108;2022-11-20T18:01:44;-0.70;99.90
21844;DHT22;11084;52.482;9.108;2022-11-20T18:04:12;-0.70;99.90
21844;DHT22;11084;52.482;9.108;2022-11-20T18:06:41;-0.70;99.90
21844;DHT22;11084;52.482;9.108;2022-11-20T18:09:07;-0.30;99.90
21844;DHT22;11084;52.482;9.108;2022-11-20T18:11:35;-0.60;99.90
21844;DHT22;11084;52.482;9.108;2022-11-20T18:14:05;-0.70;99.90
21844;DHT22;11084;52.482;9.108;2022-11-20T18:16:53;-0.60;99.90